createdAt,value
2023-04-07T00:00:04.819Z,7.42
2023-04-07T00:02:54.349Z,7.43
2023-04-07T00:05:25.420Z,7.37
2023-04-07T00:07:57.154Z,7.53
2023-04-07T00:10:29.152Z,7.54
2023-04-07T00:13:06.127Z,7.39
2023-04-07T00:15:38.272Z,7.40
2023-04-07T00:18:09.492Z,7.56
2023-04-07T00:20:43.477Z,7.27
2023-04-07T00:23:13.890Z,7.61
2023-04-07T00:25:44.681Z,7.51
2023-04-07T00:28:20.676Z,7.41
2023-04-07T00:30:50.322Z,7.62
2023-04-07T00:33:18.853Z,7.59
2023-04-07T00:35:54.446Z,7.33
2023-04-07T00:38:25.949Z,7.51
2023-04-07T00:41:01.412Z,7.38
2023-04-07T00:43:35.347Z,7.40
2023-04-07T00:46:25.539Z,7.49
2023-04-07T00:48:59.957Z,7.35
2023-04-07T00:51:34.740Z,7.34
2023-04-07T00:54:11.231Z,7.18
2023-04-07T00:56:42.552Z,7.52
2023-04-07T00:59:12.742Z,7.41
2023-04-07T01:01:51.684Z,7.30
2023-04-07T01:04:29.511Z,7.39
2023-04-07T01:07:13.476Z,7.26
2023-04-07T01:09:48.979Z,7.33
2023-04-07T01:12:24.270Z,7.16
2023-04-07T01:14:59.275Z,7.05
2023-04-07T01:17:46.804Z,7.10
2023-04-07T01:20:22.719Z,7.06
2023-04-07T01:23:03.385Z,7.12
2023-04-07T01:25:51.481Z,7.09
2023-04-07T01:28:42.283Z,7.32
2023-04-07T01:31:25.109Z,7.05
2023-04-07T01:34:05.215Z,7.13
2023-04-07T01:36:40.022Z,7.27
2023-04-07T01:39:09.023Z,7.26
2023-04-07T01:41:47.272Z,7.14
2023-04-07T01:44:27.664Z,6.97
2023-04-07T01:47:00.850Z,7.18
2023-04-07T01:49:43.082Z,7.17
2023-04-07T01:52:11.728Z,7.03
2023-04-07T01:54:41.285Z,7.07
2023-04-07T01:57:10.626Z,7.27
2023-04-07T01:59:39.627Z,7.25
2023-04-07T02:02:11.394Z,7.05
2023-04-07T02:04:49.911Z,7.34
2023-04-07T02:07:22.270Z,7.08
2023-04-07T02:09:58.492Z,7.18
2023-04-07T02:12:30.033Z,7.29
2023-04-07T02:15:16.740Z,7.16
2023-04-07T02:17:54.374Z,7.20
2023-04-07T02:20:24.784Z,7.25
2023-04-07T02:22:59.312Z,7.12
2023-04-07T02:25:31.646Z,7.03
2023-04-07T02:28:02.149Z,6.98
2023-04-07T02:30:32.724Z,7.17
2023-04-07T02:33:11.279Z,7.09
2023-04-07T02:35:42.166Z,7.17
2023-04-07T02:38:11.606Z,7.11
2023-04-07T02:40:40.526Z,6.93
2023-04-07T02:43:12.673Z,7.07
2023-04-07T02:45:43.955Z,6.84
2023-04-07T02:48:31.754Z,6.93
2023-04-07T02:51:00.894Z,7.08
2023-04-07T02:53:32.447Z,7.08
2023-04-07T02:56:03.248Z,7.08
2023-04-07T02:58:32.432Z,7.01
2023-04-07T03:01:01.706Z,7.14
2023-04-07T03:03:35.615Z,7.01
2023-04-07T03:06:10.495Z,7.01
2023-04-07T03:08:50.638Z,7.04
2023-04-07T03:11:24.903Z,6.82
2023-04-07T03:13:56.701Z,7.08
2023-04-07T03:16:27.671Z,6.99
2023-04-07T03:19:18.924Z,6.99
2023-04-07T03:21:57.467Z,7.02
2023-04-07T03:24:32.995Z,6.85
2023-04-07T03:27:05.341Z,6.80
2023-04-07T03:29:54.821Z,6.92
2023-04-07T03:32:26.973Z,6.71
2023-04-07T03:34:57.232Z,6.59
2023-04-07T03:37:34.130Z,6.75
2023-04-07T03:40:05.893Z,6.92
2023-04-07T03:42:38.110Z,6.79
2023-04-07T03:45:20.672Z,6.83
2023-04-07T03:47:56.333Z,6.82
2023-04-07T03:50:29.351Z,6.76
2023-04-07T03:53:21.077Z,6.70
2023-04-07T03:55:52.358Z,6.99
2023-04-07T03:58:56.761Z,6.90
2023-04-07T04:01:56.611Z,6.76
2023-04-07T04:04:25.989Z,6.73
2023-04-07T04:07:04.419Z,6.86
2023-04-07T04:09:51.981Z,6.77
2023-04-07T04:12:33.871Z,6.76
2023-04-07T04:15:18.347Z,6.96
2023-04-07T04:17:49.578Z,6.84
2023-04-07T04:20:28.619Z,6.81
2023-04-07T04:23:02.764Z,6.79
2023-04-07T04:25:34.510Z,6.89
2023-04-07T04:28:10.714Z,6.43
2023-04-07T04:30:42.640Z,6.79
2023-04-07T04:33:12.348Z,6.70
2023-04-07T04:36:01.594Z,6.74
2023-04-07T04:38:33.720Z,6.81
2023-04-07T04:41:08.414Z,6.91
2023-04-07T04:43:39.965Z,6.88
2023-04-07T04:46:13.068Z,6.81
2023-04-07T04:48:48.638Z,6.72
2023-04-07T04:51:27.172Z,6.82
2023-04-07T04:54:07.430Z,6.95
2023-04-07T04:56:49.377Z,6.98
2023-04-07T04:59:26.381Z,7.00
2023-04-07T05:02:03.304Z,7.03
2023-04-07T05:04:36.796Z,7.14
2023-04-07T05:07:27.191Z,7.02
2023-04-07T05:09:57.693Z,7.04
2023-04-07T05:12:28.785Z,6.85
2023-04-07T05:15:05.200Z,6.75
2023-04-07T05:17:39.994Z,6.93
2023-04-07T05:20:24.332Z,6.89
2023-04-07T05:22:52.839Z,7.03
2023-04-07T05:25:28.306Z,7.12
2023-04-07T05:28:05.787Z,7.21
2023-04-07T05:30:36.855Z,6.98
2023-04-07T05:33:08.897Z,7.17
2023-04-07T05:35:57.333Z,7.09
2023-04-07T05:38:35.946Z,6.81
2023-04-07T05:41:17.915Z,7.17
2023-04-07T05:43:47.609Z,7.24
2023-04-07T05:46:20.984Z,7.07
2023-04-07T05:48:55.821Z,7.17
2023-04-07T05:51:26.390Z,7.17
2023-04-07T05:53:58.044Z,7.27
2023-04-07T05:56:32.135Z,7.10
2023-04-07T05:59:03.720Z,7.27
2023-04-07T06:01:40.254Z,7.16
2023-04-07T06:04:21.880Z,7.24
2023-04-07T06:07:05.091Z,7.19
2023-04-07T06:09:42.377Z,7.14
2023-04-07T06:12:16.301Z,7.40
2023-04-07T06:14:51.148Z,7.28
2023-04-07T06:17:20.147Z,7.36
2023-04-07T06:19:50.056Z,7.21
2023-04-07T06:22:26.961Z,7.33
2023-04-07T06:24:55.802Z,7.16
2023-04-07T06:27:39.601Z,7.30
2023-04-07T06:30:11.579Z,7.56
2023-04-07T06:32:41.222Z,7.43
2023-04-07T06:35:16.740Z,7.73
2023-04-07T06:37:48.819Z,7.53
2023-04-07T06:40:25.940Z,7.54
2023-04-07T06:43:02.171Z,7.67
2023-04-07T06:45:42.224Z,7.55
2023-04-07T06:48:13.234Z,7.67
2023-04-07T06:50:49.260Z,7.55
2023-04-07T06:53:20.223Z,7.68
2023-04-07T06:55:48.766Z,7.77
2023-04-07T06:58:25.079Z,7.76
2023-04-07T07:00:56.032Z,7.74
2023-04-07T07:03:27.894Z,7.77
2023-04-07T07:05:59.971Z,7.72
2023-04-07T07:08:31.412Z,7.70
2023-04-07T07:11:03.178Z,8.08
2023-04-07T07:13:43.127Z,8.07
2023-04-07T07:16:17.010Z,7.88
2023-04-07T07:18:47.761Z,8.11
2023-04-07T07:21:28.470Z,8.10
2023-04-07T07:24:05.802Z,8.14
2023-04-07T07:26:34.963Z,7.81
2023-04-07T07:29:08.859Z,8.23
2023-04-07T07:31:42.005Z,8.15
2023-04-07T07:34:11.547Z,8.41
2023-04-07T07:36:53.156Z,8.39
2023-04-07T07:39:24.752Z,8.28
2023-04-07T07:41:56.636Z,8.02
2023-04-07T07:44:33.847Z,7.97
2023-04-07T07:47:04.573Z,8.17
2023-04-07T07:49:44.039Z,7.87
2023-04-07T07:52:21.639Z,7.94
2023-04-07T07:54:54.718Z,8.25
2023-04-07T07:57:25.028Z,8.26
2023-04-07T07:59:56.045Z,8.32
2023-04-07T08:02:29.941Z,8.24
2023-04-07T08:05:01.780Z,8.58
2023-04-07T08:07:30.788Z,8.43
2023-04-07T08:10:01.404Z,8.43
2023-04-07T08:12:31.431Z,8.37
2023-04-07T08:15:05.166Z,8.51
2023-04-07T08:17:34.147Z,8.50
2023-04-07T08:20:05.776Z,8.28
2023-04-07T08:22:38.745Z,8.29
2023-04-07T08:25:10.707Z,8.33
2023-04-07T08:27:42.282Z,8.23
2023-04-07T08:30:18.518Z,8.14
2023-04-07T08:32:46.930Z,8.24
2023-04-07T08:35:27.160Z,8.13
2023-04-07T08:37:58.659Z,8.34
2023-04-07T08:40:35.691Z,8.33
2023-04-07T08:43:20.457Z,8.36
2023-04-07T08:45:53.627Z,8.56
2023-04-07T08:48:28.890Z,8.74
2023-04-07T08:50:58.782Z,8.44
2023-04-07T08:53:32.968Z,8.76
2023-04-07T08:56:03.694Z,8.73
2023-04-07T08:58:32.986Z,8.51
2023-04-07T09:01:06.336Z,8.65
2023-04-07T09:03:39.709Z,8.78
2023-04-07T09:06:07.932Z,8.47
2023-04-07T09:08:42.012Z,8.77
2023-04-07T09:11:18.518Z,8.87
2023-04-07T09:13:59.309Z,8.71
2023-04-07T09:16:31.993Z,8.80
2023-04-07T09:19:02.826Z,8.74
2023-04-07T09:21:56.055Z,8.64
2023-04-07T09:24:26.958Z,8.85
2023-04-07T09:27:16.486Z,8.84
2023-04-07T09:29:56.629Z,8.72
2023-04-07T09:32:42.084Z,8.88
2023-04-07T09:35:21.606Z,9.01
2023-04-07T09:38:15.636Z,9.27
2023-04-07T09:40:48.621Z,9.11
2023-04-07T09:43:21.730Z,9.13
2023-04-07T09:45:50.862Z,9.09
2023-04-07T09:48:21.871Z,9.15
2023-04-07T09:50:54.219Z,9.05
2023-04-07T09:53:30.220Z,9.05
2023-04-07T09:56:04.314Z,8.86
2023-04-07T09:58:43.081Z,8.94
2023-04-07T10:01:14.662Z,9.07
2023-04-07T10:03:52.089Z,8.77
2023-04-07T10:06:24.670Z,9.03
2023-04-07T10:08:56.150Z,9.14
2023-04-07T10:11:29.289Z,9.23
2023-04-07T10:13:58.084Z,9.24
2023-04-07T10:16:29.853Z,9.17
2023-04-07T10:19:01.983Z,9.58
2023-04-07T10:21:40.160Z,9.32
2023-04-07T10:24:22.637Z,9.22
2023-04-07T10:26:54.751Z,9.29
2023-04-07T10:29:23.373Z,9.19
2023-04-07T10:31:55.078Z,9.35
2023-04-07T10:35:01.288Z,9.41
2023-04-07T10:37:36.696Z,9.57
2023-04-07T10:40:36.233Z,9.33
2023-04-07T10:43:11.631Z,9.27
2023-04-07T10:45:54.538Z,9.27
2023-04-07T10:48:23.429Z,9.39
2023-04-07T10:51:28.635Z,9.40
2023-04-07T10:54:26.789Z,9.43
2023-04-07T10:57:10.163Z,9.55
2023-04-07T10:59:47.604Z,9.49
2023-04-07T11:02:42.990Z,9.41
2023-04-07T11:05:28.545Z,9.52
2023-04-07T11:07:59.818Z,9.59
2023-04-07T11:10:34.517Z,9.43
2023-04-07T11:13:11.481Z,9.48
2023-04-07T11:15:42.870Z,9.42
2023-04-07T11:18:23.955Z,9.49
2023-04-07T11:20:54.475Z,9.53
2023-04-07T11:23:25.510Z,9.62
2023-04-07T11:26:03.123Z,9.64
2023-04-07T11:28:32.822Z,9.87
2023-04-07T11:31:01.237Z,10.08
2023-04-07T11:33:31.484Z,10.10
2023-04-07T11:36:02.388Z,10.06
2023-04-07T11:38:38.865Z,9.88
2023-04-07T11:41:24.569Z,10.12
2023-04-07T11:44:10.853Z,10.19
2023-04-07T11:46:55.172Z,10.25
2023-04-07T11:49:24.325Z,10.33
2023-04-07T11:52:03.170Z,10.54
2023-04-07T11:54:44.299Z,10.72
2023-04-07T11:57:28.210Z,10.74
2023-04-07T12:00:11.666Z,10.82
2023-04-07T12:02:39.949Z,10.78
2023-04-07T12:05:11.051Z,10.93
2023-04-07T12:07:43.103Z,10.96
2023-04-07T12:10:27.860Z,10.79
2023-04-07T12:13:10.992Z,10.95
2023-04-07T12:15:45.073Z,11.24
2023-04-07T12:18:17.596Z,11.30
2023-04-07T12:20:55.646Z,10.78
2023-04-07T12:23:27.347Z,10.64
2023-04-07T12:25:57.369Z,10.68
2023-04-07T12:28:38.845Z,10.85
2023-04-07T12:31:07.159Z,10.45
2023-04-07T12:33:41.093Z,10.36
2023-04-07T12:36:09.656Z,10.41
2023-04-07T12:38:39.020Z,10.61
2023-04-07T12:41:08.003Z,10.73
2023-04-07T12:43:37.694Z,11.06
2023-04-07T12:46:05.758Z,10.73
2023-04-07T12:48:45.099Z,11.12
2023-04-07T12:51:13.262Z,10.94
2023-04-07T12:53:45.148Z,10.68
2023-04-07T12:56:21.350Z,10.44
2023-04-07T12:58:54.553Z,10.59
2023-04-07T13:01:23.694Z,10.60
2023-04-07T13:03:53.895Z,10.69
2023-04-07T13:06:23.587Z,10.60
2023-04-07T13:08:53.399Z,10.47
2023-04-07T13:11:22.188Z,10.57
2023-04-07T13:14:05.605Z,10.65
2023-04-07T13:16:35.552Z,10.55
2023-04-07T13:19:05.972Z,10.56
2023-04-07T13:21:46.082Z,10.52
2023-04-07T13:24:31.048Z,10.54
2023-04-07T13:27:01.503Z,10.56
2023-04-07T13:29:32.167Z,10.48
2023-04-07T13:32:06.959Z,10.61
2023-04-07T13:34:39.520Z,10.46
2023-04-07T13:37:08.920Z,10.61
2023-04-07T13:39:38.352Z,10.73
2023-04-07T13:42:12.590Z,10.95
2023-04-07T13:44:54.654Z,10.64
2023-04-07T13:47:25.696Z,10.63
2023-04-07T13:49:54.865Z,10.55
2023-04-07T13:52:25.306Z,10.52
2023-04-07T13:54:58.137Z,10.73
2023-04-07T13:57:28.787Z,10.41
2023-04-07T14:00:00.219Z,10.38
2023-04-07T14:02:32.953Z,10.64
2023-04-07T14:05:02.359Z,10.15
2023-04-07T14:07:33.591Z,10.37
2023-04-07T14:10:05.255Z,10.71
2023-04-07T14:12:34.718Z,10.40
2023-04-07T14:15:18.523Z,11.00
2023-04-07T14:17:47.395Z,10.96
2023-04-07T14:20:16.964Z,10.90
2023-04-07T14:22:49.005Z,10.81
2023-04-07T14:25:20.342Z,10.68
2023-04-07T14:27:59.846Z,10.64
2023-04-07T14:30:34.374Z,10.69
2023-04-07T14:33:05.155Z,10.74
2023-04-07T14:35:36.972Z,10.77
2023-04-07T14:38:05.506Z,10.75
2023-04-07T14:40:39.511Z,10.07
2023-04-07T14:43:10.313Z,9.89
2023-04-07T14:45:48.287Z,10.00
2023-04-07T14:48:27.386Z,10.02
2023-04-07T14:51:10.265Z,10.10
2023-04-07T14:53:47.333Z,10.15
2023-04-07T14:56:18.459Z,10.10
2023-04-07T14:58:55.012Z,10.12
2023-04-07T15:01:27.186Z,9.88
2023-04-07T15:03:56.635Z,10.10
2023-04-07T15:06:26.461Z,9.83
2023-04-07T15:08:55.827Z,9.96
2023-04-07T15:11:28.591Z,10.07
2023-04-07T15:13:57.910Z,10.03
2023-04-07T15:16:32.424Z,10.09
2023-04-07T15:19:01.837Z,9.98
2023-04-07T15:21:31.034Z,10.03
2023-04-07T15:24:09.547Z,9.99
2023-04-07T15:26:45.793Z,10.14
2023-04-07T15:29:17.523Z,9.93
2023-04-07T15:31:51.540Z,9.94
2023-04-07T15:34:21.598Z,9.99
2023-04-07T15:36:55.650Z,9.81
2023-04-07T15:39:25.137Z,9.92
2023-04-07T15:41:55.844Z,9.80
2023-04-07T15:44:30.470Z,9.67
2023-04-07T15:47:06.065Z,9.81
2023-04-07T15:49:37.582Z,9.56
2023-04-07T15:52:07.732Z,9.57
2023-04-07T15:54:38.887Z,9.47
2023-04-07T15:57:09.736Z,9.49
2023-04-07T15:59:40.511Z,9.45
2023-04-07T16:02:13.001Z,9.42
2023-04-07T16:04:44.681Z,9.40
2023-04-07T16:07:16.644Z,9.33
2023-04-07T16:09:47.633Z,9.43
2023-04-07T16:12:16.846Z,9.51
2023-04-07T16:14:50.368Z,9.28
2023-04-07T16:17:23.203Z,9.34
2023-04-07T16:19:52.836Z,9.47
2023-04-07T16:22:25.565Z,9.39
2023-04-07T16:25:02.061Z,9.42
2023-04-07T16:27:30.212Z,9.43
2023-04-07T16:29:59.871Z,9.20
2023-04-07T16:32:32.369Z,9.32
2023-04-07T16:35:01.846Z,9.56
2023-04-07T16:37:33.465Z,9.33
2023-04-07T16:40:12.023Z,9.19
2023-04-07T16:42:41.430Z,9.26
2023-04-07T16:45:14.126Z,9.39
2023-04-07T16:47:52.382Z,9.38
2023-04-07T16:50:24.976Z,9.33
2023-04-07T16:52:54.897Z,9.20
2023-04-07T16:55:26.656Z,9.19
2023-04-07T16:57:56.269Z,9.41
2023-04-07T17:00:27.923Z,9.20
2023-04-07T17:03:03.175Z,9.27
2023-04-07T17:05:39.869Z,9.27
2023-04-07T17:08:08.508Z,9.29
2023-04-07T17:10:40.410Z,9.21
2023-04-07T17:13:10.808Z,9.44
2023-04-07T17:15:40.373Z,9.30
2023-04-07T17:18:12.977Z,9.13
2023-04-07T17:20:44.501Z,9.48
2023-04-07T17:23:14.764Z,9.17
2023-04-07T17:25:44.420Z,8.97
2023-04-07T17:28:12.826Z,8.91
2023-04-07T17:30:50.734Z,8.97
2023-04-07T17:33:20.438Z,9.15
2023-04-07T17:35:50.913Z,8.96
2023-04-07T17:38:21.822Z,9.19
2023-04-07T17:41:01.901Z,9.06
2023-04-07T17:43:32.989Z,8.75
2023-04-07T17:46:02.301Z,8.88
2023-04-07T17:48:36.250Z,8.75
2023-04-07T17:51:05.887Z,8.92
2023-04-07T17:53:39.677Z,8.92
2023-04-07T17:56:15.050Z,9.05
2023-04-07T17:58:46.224Z,9.08
2023-04-07T18:01:17.306Z,9.03
2023-04-07T18:03:53.139Z,8.97
2023-04-07T18:06:24.184Z,8.86
2023-04-07T18:09:00.630Z,8.89
2023-04-07T18:11:30.265Z,8.91
2023-04-07T18:14:00.860Z,8.83
2023-04-07T18:16:30.387Z,8.90
2023-04-07T18:19:03.003Z,8.94
2023-04-07T18:21:32.558Z,8.98
2023-04-07T18:24:17.279Z,8.85
2023-04-07T18:26:58.069Z,8.77
2023-04-07T18:29:35.071Z,8.86
2023-04-07T18:32:05.090Z,8.86
2023-04-07T18:34:43.888Z,8.92
2023-04-07T18:37:14.499Z,8.98
2023-04-07T18:39:48.694Z,8.88
2023-04-07T18:42:20.352Z,8.80
2023-04-07T18:44:51.132Z,8.94
2023-04-07T18:47:25.230Z,8.89
2023-04-07T18:50:00.502Z,8.85
2023-04-07T18:52:34.590Z,8.84
2023-04-07T18:55:03.088Z,8.92
2023-04-07T18:57:32.560Z,8.91
2023-04-07T19:00:04.162Z,8.81
2023-04-07T19:02:47.013Z,8.72
2023-04-07T19:05:25.155Z,8.77
2023-04-07T19:07:56.326Z,8.65
2023-04-07T19:10:30.894Z,8.89
2023-04-07T19:13:09.915Z,8.62
2023-04-07T19:15:46.121Z,8.68
2023-04-07T19:18:28.646Z,8.76
2023-04-07T19:21:09.557Z,8.51
2023-04-07T19:23:50.270Z,8.69
2023-04-07T19:26:23.356Z,8.69
2023-04-07T19:28:54.423Z,8.51
2023-04-07T19:31:28.712Z,8.90
2023-04-07T19:34:00.641Z,8.56
2023-04-07T19:36:33.378Z,8.68
2023-04-07T19:39:08.808Z,8.62
2023-04-07T19:42:04.171Z,8.46
2023-04-07T19:44:38.720Z,8.44
2023-04-07T19:47:10.406Z,8.42
2023-04-07T19:49:39.545Z,8.62
2023-04-07T19:52:14.692Z,8.72
2023-04-07T19:54:52.354Z,8.55
2023-04-07T19:57:26.426Z,8.38
2023-04-07T20:00:04.238Z,8.56
2023-04-07T20:02:37.219Z,8.36
2023-04-07T20:05:07.292Z,8.28
2023-04-07T20:07:51.258Z,8.47
2023-04-07T20:10:22.431Z,8.38
2023-04-07T20:12:54.211Z,8.51
2023-04-07T20:15:27.026Z,8.27
2023-04-07T20:17:58.525Z,8.47
2023-04-07T20:20:35.152Z,8.36
2023-04-07T20:23:16.665Z,8.53
2023-04-07T20:25:47.018Z,8.35
2023-04-07T20:28:19.695Z,8.34
2023-04-07T20:30:49.120Z,8.40
2023-04-07T20:33:18.145Z,8.40
2023-04-07T20:35:47.696Z,8.40
2023-04-07T20:38:21.276Z,8.49
2023-04-07T20:40:57.870Z,8.45
2023-04-07T20:43:27.625Z,8.55
2023-04-07T20:45:56.204Z,8.53
2023-04-07T20:48:27.295Z,8.49
2023-04-07T20:51:05.720Z,8.34
2023-04-07T20:53:37.645Z,8.41
2023-04-07T20:56:08.361Z,8.37
2023-04-07T20:58:39.485Z,8.39
2023-04-07T21:01:09.380Z,8.38
2023-04-07T21:03:42.276Z,8.28
2023-04-07T21:06:11.483Z,8.36
2023-04-07T21:08:41.676Z,8.34
2023-04-07T21:11:11.689Z,8.26
2023-04-07T21:13:41.200Z,8.40
2023-04-07T21:16:11.070Z,8.43
2023-04-07T21:18:39.885Z,8.48
2023-04-07T21:21:09.158Z,8.40
2023-04-07T21:23:41.634Z,8.47
2023-04-07T21:26:22.029Z,8.19
2023-04-07T21:28:59.529Z,8.41
2023-04-07T21:31:31.327Z,8.44
2023-04-07T21:34:00.430Z,8.40
2023-04-07T21:36:33.642Z,8.38
2023-04-07T21:39:05.558Z,8.13
2023-04-07T21:41:44.200Z,8.30
2023-04-07T21:44:20.083Z,8.26
2023-04-07T21:46:50.880Z,8.49
2023-04-07T21:49:29.016Z,8.42
2023-04-07T21:52:00.974Z,8.47
2023-04-07T21:54:30.098Z,8.37
2023-04-07T21:57:06.874Z,8.40
2023-04-07T21:59:46.324Z,8.52
2023-04-07T22:02:17.603Z,8.42
2023-04-07T22:04:45.921Z,8.24
2023-04-07T22:07:15.500Z,8.12
2023-04-07T22:09:46.244Z,8.12
2023-04-07T22:12:24.153Z,8.09
2023-04-07T22:14:53.978Z,8.17
2023-04-07T22:17:26.787Z,8.03
2023-04-07T22:19:57.257Z,8.14
2023-04-07T22:22:28.776Z,7.86
2023-04-07T22:24:57.965Z,8.21
2023-04-07T22:27:41.284Z,7.82
2023-04-07T22:30:15.371Z,7.76
2023-04-07T22:32:46.193Z,7.68
2023-04-07T22:35:17.042Z,7.67
2023-04-07T22:37:48.398Z,7.59
2023-04-07T22:40:19.306Z,7.53
2023-04-07T22:42:56.877Z,7.62
2023-04-07T22:45:28.305Z,7.67
2023-04-07T22:47:59.159Z,7.51
2023-04-07T22:50:28.536Z,7.51
2023-04-07T22:52:59.626Z,7.57
2023-04-07T22:55:29.482Z,7.62
2023-04-07T22:58:04.242Z,7.26
2023-04-07T23:00:36.289Z,7.61
2023-04-07T23:03:06.297Z,7.36
2023-04-07T23:05:35.181Z,7.49
2023-04-07T23:08:05.328Z,7.25
2023-04-07T23:10:38.317Z,7.22
2023-04-07T23:13:22.088Z,7.26
2023-04-07T23:15:53.244Z,7.20
2023-04-07T23:18:22.574Z,7.31
2023-04-07T23:20:53.434Z,7.32
2023-04-07T23:23:24.192Z,7.27
2023-04-07T23:25:52.875Z,7.23
2023-04-07T23:28:29.000Z,7.17
2023-04-07T23:31:05.834Z,7.11
2023-04-07T23:33:35.509Z,7.07
2023-04-07T23:36:04.820Z,7.21
2023-04-07T23:38:37.047Z,7.12
2023-04-07T23:41:08.592Z,6.91
2023-04-07T23:43:54.059Z,7.05
2023-04-07T23:46:28.267Z,6.91
2023-04-07T23:48:59.113Z,7.00
2023-04-07T23:51:28.294Z,6.93
2023-04-07T23:53:58.116Z,6.78
2023-04-07T23:56:29.881Z,6.66
2023-04-07T23:59:07.423Z,6.63
